createdAt,value
2019-04-05T00:00:06.209Z,10.63
2019-04-05T00:02:35.020Z,11.25
2019-04-05T00:05:04.553Z,11.63
2019-04-05T00:07:33.367Z,12.47
2019-04-05T00:10:02.247Z,13.75
2019-04-05T00:12:31.385Z,13.88
2019-04-05T00:15:00.504Z,11.73
2019-04-05T00:17:29.328Z,13.93
2019-04-05T00:19:58.176Z,11.43
2019-04-05T00:22:26.990Z,11.95
2019-04-05T00:24:55.800Z,13.78
2019-04-05T00:27:24.631Z,12.60
2019-04-05T00:29:53.443Z,13.43
2019-04-05T00:32:22.277Z,12.47
2019-04-05T00:34:51.113Z,12.45
2019-04-05T00:37:20.041Z,13.78
2019-04-05T00:39:48.871Z,17.00
2019-04-05T00:42:17.734Z,15.00
2019-04-05T00:44:46.541Z,12.45
2019-04-05T00:47:15.358Z,12.30
2019-04-05T00:49:44.203Z,12.93
2019-04-05T00:52:13.015Z,12.60
2019-04-05T00:54:41.819Z,15.15
2019-04-05T00:57:13.456Z,13.20
2019-04-05T00:59:42.268Z,15.53
2019-04-05T01:02:11.170Z,16.35
2019-04-05T01:04:40.011Z,15.78
2019-04-05T01:07:08.810Z,14.38
2019-04-05T01:09:37.726Z,13.20
2019-04-05T01:12:06.873Z,12.85
2019-04-05T01:14:36.683Z,11.95
2019-04-05T01:17:05.497Z,12.47
2019-04-05T01:19:36.435Z,14.90
2019-04-05T01:22:07.750Z,15.13
2019-04-05T01:24:37.510Z,15.35
2019-04-05T01:27:10.850Z,14.65
2019-04-05T01:29:39.718Z,15.40
2019-04-05T01:32:08.523Z,12.70
2019-04-05T01:34:37.364Z,16.93
2019-04-05T01:37:06.321Z,14.85
2019-04-05T01:39:35.136Z,13.60
2019-04-05T01:42:03.959Z,15.60
2019-04-05T01:44:33.070Z,12.78
2019-04-05T01:47:01.888Z,13.98
2019-04-05T01:49:30.742Z,15.80
2019-04-05T01:51:59.653Z,17.37
2019-04-05T01:54:29.311Z,16.48
2019-04-05T01:56:58.233Z,16.77
2019-04-05T01:59:27.042Z,16.50
2019-04-05T02:01:55.860Z,15.40
2019-04-05T02:04:24.725Z,17.77
2019-04-05T02:06:53.697Z,15.88
2019-04-05T02:09:22.598Z,14.78
2019-04-05T02:11:51.444Z,15.63
2019-04-05T02:14:20.471Z,14.60
2019-04-05T02:16:49.285Z,14.93
2019-04-05T02:19:18.258Z,16.60
2019-04-05T02:21:47.412Z,14.55
2019-04-05T02:24:16.207Z,15.25
2019-04-05T02:26:45.135Z,17.92
2019-04-05T02:29:13.980Z,16.10
2019-04-05T02:31:42.804Z,16.32
2019-04-05T02:34:11.743Z,16.73
2019-04-05T02:36:40.521Z,15.50
2019-04-05T02:39:09.727Z,14.78
2019-04-05T02:41:39.993Z,14.80
2019-04-05T02:44:10.605Z,15.68
2019-04-05T02:46:41.501Z,14.35
2019-04-05T02:49:11.732Z,14.30
2019-04-05T02:51:41.340Z,15.75
2019-04-05T02:54:11.046Z,12.82
2019-04-05T02:56:40.698Z,14.85
2019-04-05T02:59:09.517Z,13.85
2019-04-05T03:01:38.839Z,15.75
2019-04-05T03:04:07.686Z,14.30
2019-04-05T03:06:36.992Z,14.43
2019-04-05T03:09:06.899Z,15.05
2019-04-05T03:11:37.910Z,15.85
2019-04-05T03:14:08.426Z,14.90
2019-04-05T03:16:41.827Z,13.10
2019-04-05T03:19:13.625Z,13.85
2019-04-05T03:21:45.388Z,14.18
2019-04-05T03:24:17.266Z,15.43
2019-04-05T03:26:49.019Z,11.12
2019-04-05T03:29:18.025Z,10.75
2019-04-05T03:31:47.255Z,14.05
2019-04-05T03:34:17.253Z,14.53
2019-04-05T03:36:46.260Z,13.30
2019-04-05T03:39:15.331Z,12.40
2019-04-05T03:41:44.542Z,14.00
2019-04-05T03:44:16.083Z,15.00
2019-04-05T03:46:56.157Z,14.83
2019-04-05T03:49:15.661Z,12.70
2019-04-05T03:51:45.371Z,10.53
2019-04-05T03:54:15.528Z,11.53
2019-04-05T03:56:44.822Z,11.63
2019-04-05T03:59:13.644Z,13.00
2019-04-05T04:01:42.589Z,12.63
2019-04-05T04:04:11.525Z,13.58
2019-04-05T04:06:40.452Z,13.28
2019-04-05T04:09:09.453Z,12.95
2019-04-05T04:11:40.163Z,10.68
2019-04-05T04:14:09.580Z,9.70
2019-04-05T04:16:41.237Z,9.68
2019-04-05T04:19:10.340Z,12.82
2019-04-05T04:21:50.806Z,14.20
2019-04-05T04:24:20.105Z,9.50
2019-04-05T04:26:50.155Z,13.62
2019-04-05T04:29:20.011Z,13.13
2019-04-05T04:31:49.627Z,14.03
2019-04-05T04:34:18.926Z,15.98
2019-04-05T04:36:48.180Z,11.18
2019-04-05T04:39:18.639Z,12.98
2019-04-05T04:41:49.339Z,13.20
2019-04-05T04:44:19.278Z,12.93
2019-04-05T04:46:48.695Z,14.33
2019-04-05T04:49:17.997Z,14.55
2019-04-05T04:51:50.152Z,14.00
2019-04-05T04:54:19.494Z,10.60
2019-04-05T04:56:48.281Z,11.80
2019-04-05T04:59:17.408Z,12.33
2019-04-05T05:01:48.002Z,12.00
2019-04-05T05:04:16.903Z,12.85
2019-04-05T05:06:46.062Z,15.23
2019-04-05T05:09:15.118Z,13.65
2019-04-05T05:11:44.356Z,14.00
2019-04-05T05:14:14.875Z,15.25
2019-04-05T05:16:43.685Z,13.62
2019-04-05T05:19:12.661Z,13.80
2019-04-05T05:21:41.531Z,14.35
2019-04-05T05:24:10.554Z,16.42
2019-04-05T05:26:39.378Z,18.02
2019-04-05T05:29:08.205Z,11.57
2019-04-05T05:31:38.486Z,16.00
2019-04-05T05:34:08.764Z,14.70
2019-04-05T05:36:37.802Z,13.80
2019-04-05T05:39:07.896Z,13.98
2019-04-05T05:41:36.695Z,12.68
2019-04-05T05:44:05.839Z,12.65
2019-04-05T05:46:34.637Z,10.55
2019-04-05T05:49:03.458Z,12.53
2019-04-05T05:51:32.498Z,14.23
2019-04-05T05:54:01.346Z,9.68
2019-04-05T05:56:30.209Z,8.08
2019-04-05T05:58:59.635Z,15.40
2019-04-05T06:01:29.055Z,13.03
2019-04-05T06:03:57.867Z,14.78
2019-04-05T06:06:26.711Z,13.70
2019-04-05T06:08:55.527Z,12.53
2019-04-05T06:11:24.337Z,10.48
2019-04-05T06:13:53.170Z,13.90
2019-04-05T06:16:22.019Z,14.45
2019-04-05T06:18:50.821Z,16.85
2019-04-05T06:21:19.695Z,15.30
2019-04-05T06:23:48.482Z,14.63
2019-04-05T06:26:17.282Z,14.40
2019-04-05T06:28:46.164Z,11.30
2019-04-05T06:31:15.148Z,8.25
2019-04-05T06:33:43.944Z,11.55
2019-04-05T06:36:12.787Z,13.28
2019-04-05T06:38:41.595Z,11.35
2019-04-05T06:41:10.535Z,9.40
2019-04-05T06:43:39.360Z,13.60
2019-04-05T06:46:08.172Z,8.48
2019-04-05T06:48:36.988Z,13.00
2019-04-05T06:51:06.145Z,11.03
2019-04-05T06:53:34.951Z,9.73
2019-04-05T06:56:03.850Z,9.55
2019-04-05T06:58:32.739Z,9.55
2019-04-05T07:01:01.575Z,10.88
2019-04-05T07:03:30.465Z,11.03
2019-04-05T07:05:59.428Z,9.88
2019-04-05T07:08:28.205Z,10.85
2019-04-05T07:10:57.010Z,11.75
2019-04-05T07:13:27.446Z,10.35
2019-04-05T07:15:56.529Z,9.28
2019-04-05T07:18:34.032Z,11.10
2019-04-05T07:20:57.859Z,10.82
2019-04-05T07:23:26.594Z,10.23
2019-04-05T07:25:55.390Z,8.95
2019-04-05T07:28:25.266Z,9.48
2019-04-05T07:30:54.345Z,9.93
2019-04-05T07:33:23.163Z,11.33
2019-04-05T07:35:52.082Z,9.95
2019-04-05T07:38:21.156Z,10.50
2019-04-05T07:40:49.946Z,9.23
2019-04-05T07:43:18.779Z,9.50
2019-04-05T07:45:48.284Z,10.80
2019-04-05T07:48:17.081Z,9.55
2019-04-05T07:50:46.027Z,8.95
2019-04-05T07:53:14.880Z,10.50
2019-04-05T07:55:43.831Z,11.12
2019-04-05T07:58:12.673Z,11.83
2019-04-05T08:00:53.053Z,10.03
2019-04-05T08:03:23.219Z,10.72
2019-04-05T08:05:52.947Z,10.65
2019-04-05T08:08:36.790Z,11.50
2019-04-05T08:11:05.901Z,10.68
2019-04-05T08:13:37.407Z,10.72
2019-04-05T08:16:06.251Z,12.58
2019-04-05T08:18:35.069Z,11.40
2019-04-05T08:21:04.046Z,10.40
2019-04-05T08:23:33.289Z,11.45
2019-04-05T08:26:02.424Z,10.13
2019-04-05T08:28:31.503Z,11.97
2019-04-05T08:31:00.654Z,11.22
2019-04-05T08:33:30.044Z,11.45
2019-04-05T08:35:58.870Z,12.45
2019-04-05T08:38:27.932Z,11.12
2019-04-05T08:40:56.796Z,12.43
2019-04-05T08:43:25.781Z,11.43
2019-04-05T08:45:54.631Z,12.50
2019-04-05T08:48:23.439Z,13.05
2019-04-05T08:50:52.246Z,13.15
2019-04-05T08:53:21.117Z,13.00
2019-04-05T08:55:49.937Z,12.93
2019-04-05T08:58:18.751Z,12.63
2019-04-05T09:00:47.607Z,12.18
2019-04-05T09:03:16.563Z,12.65
2019-04-05T09:05:45.486Z,12.55
2019-04-05T09:08:14.317Z,12.23
2019-04-05T09:10:43.411Z,13.35
2019-04-05T09:13:12.197Z,13.20
2019-04-05T09:15:41.039Z,13.35
2019-04-05T09:18:09.983Z,13.22
2019-04-05T09:20:40.246Z,13.45
2019-04-05T09:23:09.090Z,13.00
2019-04-05T09:25:37.890Z,14.98
2019-04-05T09:28:06.698Z,14.87
2019-04-05T09:30:35.560Z,13.83
2019-04-05T09:33:04.384Z,15.68
2019-04-05T09:35:33.306Z,15.28
2019-04-05T09:38:02.139Z,14.40
2019-04-05T09:40:30.991Z,16.40
2019-04-05T09:42:59.804Z,16.07
2019-04-05T09:45:28.706Z,14.55
2019-04-05T09:47:57.475Z,13.22
2019-04-05T09:50:26.457Z,14.23
2019-04-05T09:52:55.288Z,13.83
2019-04-05T09:55:24.911Z,14.33
2019-04-05T09:57:53.725Z,14.73
2019-04-05T10:00:27.195Z,15.53
2019-04-05T10:02:56.259Z,15.85
2019-04-05T10:05:25.027Z,14.85
2019-04-05T10:07:55.634Z,16.25
2019-04-05T10:10:24.583Z,13.70
2019-04-05T10:12:53.480Z,18.02
2019-04-05T10:15:22.793Z,15.25
2019-04-05T10:17:51.594Z,15.30
2019-04-05T10:20:20.507Z,15.43
2019-04-05T10:22:49.327Z,14.83
2019-04-05T10:25:18.162Z,14.35
2019-04-05T10:27:46.975Z,11.53
2019-04-05T10:30:15.938Z,13.72
2019-04-05T10:32:46.286Z,12.20
2019-04-05T10:35:15.200Z,14.30
2019-04-05T10:37:44.033Z,12.28
2019-04-05T10:40:13.347Z,14.25
2019-04-05T10:42:44.436Z,13.20
2019-04-05T10:45:14.724Z,12.47
2019-04-05T10:47:43.672Z,13.55
2019-04-05T10:50:14.155Z,12.43
2019-04-05T10:52:43.002Z,12.37
2019-04-05T10:55:12.468Z,12.45
2019-04-05T10:57:41.294Z,13.72
2019-04-05T11:00:14.123Z,13.05
2019-04-05T11:02:42.939Z,14.07
2019-04-05T11:05:12.959Z,11.18
2019-04-05T11:07:41.786Z,14.85
2019-04-05T11:10:10.910Z,13.18
2019-04-05T11:12:39.734Z,12.85
2019-04-05T11:15:10.400Z,11.68
2019-04-05T11:17:41.430Z,14.05
2019-04-05T11:20:21.082Z,16.67
2019-04-05T11:22:42.124Z,17.00
2019-04-05T11:25:12.169Z,14.93
2019-04-05T11:27:40.940Z,17.30
2019-04-05T11:30:11.751Z,17.00
2019-04-05T11:32:41.051Z,14.83
2019-04-05T11:35:10.552Z,16.82
2019-04-05T11:37:39.941Z,15.72
2019-04-05T11:40:10.537Z,16.48
2019-04-05T11:42:41.008Z,13.22
2019-04-05T11:45:10.180Z,11.85
2019-04-05T11:47:41.140Z,16.62
2019-04-05T11:50:11.756Z,16.10
2019-04-05T11:52:42.328Z,16.62
2019-04-05T11:55:11.267Z,15.93
2019-04-05T11:57:41.408Z,17.95
2019-04-05T12:00:16.502Z,15.68
2019-04-05T12:02:52.941Z,16.20
2019-04-05T12:05:26.980Z,14.07
2019-04-05T12:07:58.624Z,14.53
2019-04-05T12:10:25.491Z,16.32
2019-04-05T12:12:54.394Z,13.25
2019-04-05T12:15:23.194Z,13.83
2019-04-05T12:17:53.234Z,13.38
2019-04-05T12:20:23.275Z,14.95
2019-04-05T12:22:52.670Z,13.05
2019-04-05T12:25:21.710Z,13.50
2019-04-05T12:27:50.555Z,13.20
2019-04-05T12:30:20.995Z,13.00
2019-04-05T12:32:49.787Z,11.43
2019-04-05T12:35:21.397Z,12.85
2019-04-05T12:37:50.452Z,11.05
2019-04-05T12:40:19.919Z,11.38
2019-04-05T12:42:48.765Z,11.80
2019-04-05T12:45:17.664Z,10.93
2019-04-05T12:47:46.696Z,11.85
2019-04-05T12:53:02.351Z,11.28
2019-04-05T12:55:31.182Z,10.95
2019-04-05T12:57:59.997Z,9.23
2019-04-05T13:00:28.794Z,10.43
2019-04-05T13:05:44.552Z,10.32
2019-04-05T13:08:13.383Z,12.23
2019-04-05T13:10:42.339Z,12.13
2019-04-05T13:13:11.195Z,12.40
2019-04-05T13:15:40.237Z,13.48
2019-04-05T13:18:09.636Z,13.93
2019-04-05T13:20:38.458Z,12.78
2019-04-05T13:23:07.309Z,13.50
2019-04-05T13:25:36.124Z,11.68
2019-04-05T13:28:13.363Z,11.35
2019-04-05T13:30:35.535Z,12.43
2019-04-05T13:33:04.331Z,11.15
2019-04-05T13:35:33.192Z,11.18
2019-04-05T13:38:02.018Z,12.18
2019-04-05T13:40:30.831Z,11.20
2019-04-05T13:43:02.030Z,12.30
2019-04-05T13:45:31.505Z,11.10
2019-04-05T13:48:00.323Z,11.18
2019-04-05T13:50:29.135Z,11.78
2019-04-05T13:52:58.189Z,11.80
2019-04-05T13:55:26.926Z,11.60
2019-04-05T13:57:55.837Z,12.85
2019-04-05T14:00:24.777Z,12.37
2019-04-05T14:02:53.586Z,11.20
2019-04-05T14:05:22.808Z,10.05
2019-04-05T14:07:54.674Z,11.08
2019-04-05T14:10:22.230Z,11.88
2019-04-05T14:12:51.038Z,10.13
2019-04-05T14:15:19.918Z,10.48
2019-04-05T14:17:49.410Z,11.22
2019-04-05T14:20:19.723Z,12.33
2019-04-05T14:22:51.446Z,12.40
2019-04-05T14:25:19.374Z,10.08
2019-04-05T14:27:48.173Z,10.25
2019-04-05T14:30:18.539Z,11.15
2019-04-05T14:32:51.461Z,12.37
2019-04-05T14:35:19.911Z,10.78
2019-04-05T14:37:48.767Z,10.90
2019-04-05T14:40:18.907Z,10.88
2019-04-05T14:42:47.737Z,9.73
2019-04-05T14:45:16.683Z,10.48
2019-04-05T14:47:45.480Z,11.30
2019-04-05T14:50:16.017Z,11.45
2019-04-05T14:52:45.019Z,11.12
2019-04-05T14:55:14.246Z,11.70
2019-04-05T14:57:43.029Z,11.25
2019-04-05T15:00:14.899Z,9.20
2019-04-05T15:02:43.933Z,9.50
2019-04-05T15:05:13.157Z,8.65
2019-04-05T15:07:42.001Z,9.90
2019-04-05T15:10:11.127Z,9.73
2019-04-05T15:12:39.942Z,9.48
2019-04-05T15:15:09.385Z,8.30
2019-04-05T15:17:47.812Z,7.95
2019-04-05T15:20:09.162Z,6.12
2019-04-05T15:22:41.408Z,7.12
2019-04-05T15:25:09.989Z,5.80
2019-04-05T15:27:38.779Z,6.35
2019-04-05T15:30:08.717Z,5.83
2019-04-05T15:32:38.022Z,5.25
2019-04-05T15:35:09.405Z,6.15
2019-04-05T15:37:40.316Z,6.03
2019-04-05T15:40:10.721Z,5.70
2019-04-05T15:42:39.527Z,5.25
2019-04-05T15:45:09.665Z,5.30
2019-04-05T15:47:38.778Z,5.05
2019-04-05T15:50:08.597Z,5.35
2019-04-05T15:52:37.455Z,5.70
2019-04-05T15:55:07.267Z,4.90
2019-04-05T15:57:39.192Z,5.25
2019-04-05T16:00:18.591Z,4.08
2019-04-05T16:02:47.396Z,4.55
2019-04-05T16:05:18.079Z,4.15
2019-04-05T16:07:46.935Z,4.70
2019-04-05T16:10:15.960Z,3.52
2019-04-05T16:12:44.772Z,3.95
2019-04-05T16:15:13.887Z,3.80
2019-04-05T16:17:42.706Z,3.90
2019-04-05T16:20:12.207Z,4.30
2019-04-05T16:22:43.384Z,3.60
2019-04-05T16:25:12.415Z,3.17
2019-04-05T16:27:41.221Z,2.77
2019-04-05T16:30:10.643Z,3.30
2019-04-05T16:32:39.450Z,2.22
2019-04-05T16:35:08.383Z,2.67
2019-04-05T16:37:37.178Z,3.25
2019-04-05T16:40:08.243Z,3.40
2019-04-05T16:42:37.055Z,2.95
2019-04-05T16:45:08.358Z,3.40
2019-04-05T16:47:37.155Z,2.85
2019-04-05T16:50:08.853Z,1.95
2019-04-05T16:52:44.692Z,4.10
2019-04-05T16:55:08.366Z,3.25
2019-04-05T16:57:37.163Z,2.52
2019-04-05T17:00:09.446Z,3.00
2019-04-05T17:02:38.317Z,3.42
2019-04-05T17:05:08.119Z,4.20
2019-04-05T17:07:37.014Z,2.15
2019-04-05T17:10:06.207Z,2.10
2019-04-05T17:12:35.036Z,1.90
2019-04-05T17:15:05.258Z,2.95
2019-04-05T17:17:34.141Z,2.62
2019-04-05T17:20:03.063Z,2.80
2019-04-05T17:22:31.898Z,2.60
2019-04-05T17:25:00.703Z,2.55
2019-04-05T17:27:29.519Z,2.22
2019-04-05T17:29:58.379Z,2.98
2019-04-05T17:32:27.214Z,2.80
2019-04-05T17:34:56.011Z,2.60
2019-04-05T17:37:26.676Z,2.70
2019-04-05T17:39:55.307Z,2.15
2019-04-05T17:42:24.123Z,2.72
2019-04-05T17:44:52.954Z,2.75
2019-04-05T17:47:21.930Z,2.80
2019-04-05T17:49:50.822Z,2.60
2019-04-05T17:52:22.595Z,3.02
2019-04-05T17:54:51.413Z,2.83
2019-04-05T17:57:20.731Z,2.02
2019-04-05T17:59:49.569Z,2.42
2019-04-05T18:02:18.693Z,1.80
2019-04-05T18:04:47.657Z,2.42
2019-04-05T18:07:17.952Z,1.90
2019-04-05T18:09:46.745Z,1.72
2019-04-05T18:12:15.570Z,1.80
2019-04-05T18:14:44.404Z,1.92
2019-04-05T18:17:13.314Z,2.37
2019-04-05T18:19:42.123Z,1.87
2019-04-05T18:22:10.963Z,2.50
2019-04-05T18:24:39.782Z,2.83
2019-04-05T18:27:08.659Z,1.95
2019-04-05T18:29:37.510Z,1.82
2019-04-05T18:32:06.313Z,1.80
2019-04-05T18:34:35.431Z,1.60
2019-04-05T18:37:07.675Z,2.30
2019-04-05T18:39:36.635Z,1.50
2019-04-05T18:42:06.043Z,2.58
2019-04-05T18:44:34.869Z,1.20
2019-04-05T18:47:06.340Z,1.95
2019-04-05T18:49:35.169Z,2.17
2019-04-05T18:52:04.064Z,1.50
2019-04-05T18:54:32.858Z,2.58
2019-04-05T18:57:01.661Z,1.95
2019-04-05T18:59:30.485Z,2.95
2019-04-05T19:01:59.290Z,3.35
2019-04-05T19:04:28.414Z,4.22
2019-04-05T19:06:57.312Z,3.33
2019-04-05T19:09:26.113Z,3.45
2019-04-05T19:11:54.961Z,3.00
2019-04-05T19:14:23.877Z,5.42
2019-04-05T19:16:52.672Z,3.33
2019-04-05T19:19:21.475Z,3.12
2019-04-05T19:21:50.635Z,3.83
2019-04-05T19:24:19.473Z,3.17
2019-04-05T19:26:48.272Z,3.30
2019-04-05T19:29:17.119Z,5.42
2019-04-05T19:49:19.295Z,3.80
2019-04-05T19:51:49.214Z,3.47
2019-04-05T19:54:19.353Z,3.50
2019-04-05T19:56:49.666Z,3.98
2019-04-05T19:59:18.507Z,3.83
2019-04-05T20:01:49.946Z,5.40
2019-04-05T20:04:18.714Z,5.40
2019-04-05T20:09:21.714Z,4.22
2019-04-05T20:11:50.708Z,4.20
2019-04-05T20:14:19.833Z,4.78
2019-04-05T20:16:48.697Z,4.80
2019-04-05T20:19:17.509Z,4.97
2019-04-05T20:21:48.392Z,4.35
2019-04-05T20:24:17.309Z,5.17
2019-04-05T20:26:46.410Z,4.78
2019-04-05T20:29:15.295Z,4.42
2019-04-05T20:31:44.223Z,4.25
2019-04-05T20:34:13.038Z,4.40
2019-04-05T20:36:41.870Z,7.42
2019-04-05T20:39:10.673Z,5.70
2019-04-05T20:41:39.527Z,6.17
2019-04-05T20:44:08.367Z,4.78
2019-04-05T20:46:37.197Z,4.80
2019-04-05T20:49:06.248Z,6.15
2019-04-05T20:51:35.027Z,4.65
2019-04-05T20:54:03.897Z,4.08
2019-04-05T20:56:32.711Z,5.45
2019-04-05T20:59:01.566Z,4.85
2019-04-05T21:01:30.393Z,5.40
2019-04-05T21:03:59.175Z,5.67
2019-04-05T21:06:28.030Z,7.17
2019-04-05T21:08:58.268Z,5.75
2019-04-05T21:11:28.540Z,6.53
2019-04-05T21:13:57.475Z,4.60
2019-04-05T21:16:26.301Z,6.45
2019-04-05T21:18:55.107Z,7.60
2019-04-05T21:21:23.960Z,5.65
2019-04-05T21:23:52.755Z,6.65
2019-04-05T21:26:21.559Z,7.58
2019-04-05T21:28:50.406Z,7.25
2019-04-05T21:31:19.213Z,6.97
2019-04-05T21:33:48.339Z,6.03
2019-04-05T21:36:19.889Z,6.10
2019-04-05T21:38:48.703Z,6.62
2019-04-05T21:41:17.497Z,6.67
2019-04-05T21:43:46.496Z,5.70
2019-04-05T21:46:15.302Z,7.75
2019-04-05T21:48:44.097Z,7.03
2019-04-05T21:51:12.941Z,4.75
2019-04-05T21:53:41.752Z,7.53
2019-04-05T21:56:10.559Z,6.60
2019-04-05T21:58:39.505Z,6.22
2019-04-05T22:01:09.418Z,7.17
2019-04-05T22:03:38.397Z,5.37
2019-04-05T22:06:07.203Z,7.20
2019-04-05T22:08:36.017Z,9.18
2019-04-05T22:11:05.811Z,5.42
2019-04-05T22:13:37.357Z,7.35
2019-04-05T22:16:06.252Z,6.50
2019-04-05T22:18:35.122Z,5.45
2019-04-05T22:21:05.847Z,5.90
2019-04-05T22:23:36.012Z,7.55
2019-04-05T22:26:06.218Z,8.80
2019-04-05T22:28:36.438Z,9.10
2019-04-05T22:31:08.095Z,8.13
2019-04-05T22:33:37.208Z,6.92
2019-04-05T22:36:06.302Z,7.05
2019-04-05T22:38:36.372Z,6.80
2019-04-05T22:41:05.300Z,8.10
2019-04-05T22:43:34.191Z,10.48
2019-04-05T22:46:03.056Z,7.08
2019-04-05T22:48:31.979Z,9.73
2019-04-05T22:51:00.869Z,8.95
2019-04-05T22:53:29.861Z,10.10
2019-04-05T22:55:58.703Z,13.10
2019-04-05T22:58:27.640Z,9.03
2019-04-05T23:00:56.532Z,16.97
2019-04-05T23:03:25.417Z,9.98
2019-04-05T23:05:54.316Z,9.13
2019-04-05T23:08:23.204Z,16.93
2019-04-05T23:10:52.816Z,6.85
2019-04-05T23:13:21.914Z,9.13
2019-04-05T23:15:50.765Z,9.83
2019-04-05T23:18:19.690Z,7.70
2019-04-05T23:20:48.701Z,7.22
2019-04-05T23:23:17.655Z,6.47
2019-04-05T23:25:46.773Z,6.35
2019-04-05T23:28:15.636Z,8.48
2019-04-05T23:30:44.538Z,8.85
2019-04-05T23:33:16.520Z,8.98
2019-04-05T23:35:45.412Z,8.45
2019-04-05T23:38:14.277Z,7.80
2019-04-05T23:40:43.218Z,7.40
2019-04-05T23:43:12.089Z,6.95
2019-04-05T23:45:41.007Z,7.90
2019-04-05T23:48:09.972Z,8.30
2019-04-05T23:50:38.872Z,6.47
2019-04-05T23:53:07.761Z,6.60
2019-04-05T23:55:37.930Z,6.60
2019-04-05T23:58:06.916Z,7.45
